Time;durP1;ratioP1;P1;durP2;ratioP2;P2;SDS_P1;SDS_P2;PMS_P1;PMS_P2;Temp;Humidity;BMP_temperature;BMP_pressure;BME280_temperature;BME280_humidity;BME280_pressure;Samples;Min_cycle;Max_cycle;Signal;HPM_P1;HPM_P2
2020/12/08 00:00:06;;;;;;;15.10;9.27;;;;;;;4.00;84.47;100070.84;5076671;28;20571;-62
2020/12/08 00:02:33;;;;;;;20.60;11.30;;;;;;;4.08;84.26;100066.19;5077965;28;20475;-62
2020/12/08 00:04:59;;;;;;;17.00;9.67;;;;;;;4.10;84.01;100069.69;5076412;28;20479;-62
2020/12/08 00:07:27;;;;;;;10.73;7.00;;;;;;;4.09;83.30;100077.31;5078064;28;20766;-62
2020/12/08 00:09:54;;;;;;;14.53;9.23;;;;;;;4.18;84.03;100076.16;5087916;28;20509;-62
2020/12/08 00:12:25;;;;;;;16.37;10.47;;;;;;;4.14;83.63;100066.53;5097843;28;20540;-62
2020/12/08 00:14:52;;;;;;;12.70;8.67;;;;;;;4.05;83.88;100071.09;5096563;28;20482;-61
2020/12/08 00:17:18;;;;;;;13.00;8.63;;;;;;;4.05;83.34;100066.00;5098253;28;20457;-62
2020/12/08 00:19:45;;;;;;;16.03;7.57;;;;;;;4.01;83.37;100076.84;5096830;28;20474;-61
2020/12/08 00:22:13;;;;;;;13.23;8.07;;;;;;;4.09;83.31;100072.19;5097823;28;20465;-61
2020/12/08 00:24:41;;;;;;;12.00;7.73;;;;;;;4.31;82.10;100074.28;5096135;28;20515;-62
2020/12/08 00:27:08;;;;;;;11.97;7.57;;;;;;;4.15;82.81;100070.84;5098162;28;20515;-62
2020/12/08 00:29:35;;;;;;;10.47;6.53;;;;;;;4.32;81.65;100076.91;5096658;28;20478;-62
2020/12/08 00:32:02;;;;;;;10.77;7.03;;;;;;;4.35;81.83;100085.56;5097666;28;20557;-61
2020/12/08 00:34:30;;;;;;;10.83;7.50;;;;;;;4.22;82.15;100082.31;5096002;28;20484;-61
2020/12/08 00:36:59;;;;;;;11.50;7.30;;;;;;;4.15;81.93;100081.06;5097323;28;20552;-61
2020/12/08 00:39:26;;;;;;;9.90;6.80;;;;;;;4.10;82.13;100073.94;5096246;28;20557;-62
2020/12/08 00:41:53;;;;;;;9.47;6.87;;;;;;;4.01;82.40;100069.19;5097727;28;20545;-62
2020/12/08 00:44:19;;;;;;;12.20;7.40;;;;;;;4.05;82.05;100066.91;5095697;28;20792;-62
2020/12/08 00:46:47;;;;;;;17.33;7.03;;;;;;;4.00;82.35;100072.53;5097579;28;20553;-62
2020/12/08 00:49:14;;;;;;;11.73;7.23;;;;;;;4.03;82.39;100067.59;5096347;28;20478;-62
2020/12/08 00:51:41;;;;;;;10.50;6.70;;;;;;;4.09;82.17;100067.09;5097396;28;20884;-60
2020/12/08 00:54:07;;;;;;;10.53;6.73;;;;;;;4.22;81.33;100063.53;5095211;28;20470;-62
2020/12/08 00:56:34;;;;;;;10.60;7.30;;;;;;;4.01;81.56;100069.19;5097400;28;20544;-61
2020/12/08 00:59:02;;;;;;;10.87;7.00;;;;;;;4.14;81.47;100065.66;5096326;28;20553;-61
2020/12/08 01:01:29;;;;;;;12.10;7.10;;;;;;;4.24;81.06;100061.94;5097196;28;20579;-63
2020/12/08 01:03:55;;;;;;;10.90;7.17;;;;;;;4.15;81.39;100063.19;5095740;28;20501;-63
2020/12/08 01:06:23;;;;;;;10.70;6.90;;;;;;;4.11;80.83;100065.50;5096879;28;20900;-60
2020/12/08 01:08:50;;;;;;;9.67;6.43;;;;;;;4.17;81.32;100069.25;5095920;28;20561;-61
2020/12/08 01:11:16;;;;;;;9.80;6.60;;;;;;;4.17;81.04;100066.69;5097151;28;20548;-62
2020/12/08 01:13:43;;;;;;;10.07;6.37;;;;;;;4.14;81.04;100074.19;5095944;28;20477;-61
2020/12/08 01:16:10;;;;;;;9.63;6.73;;;;;;;4.20;80.84;100071.09;5096616;28;20507;-60
2020/12/08 01:18:37;;;;;;;10.07;6.57;;;;;;;4.07;81.33;100073.75;5095453;28;20945;-62
2020/12/08 01:21:04;;;;;;;11.17;7.40;;;;;;;4.15;81.51;100078.50;5096818;28;20544;-62
2020/12/08 01:23:30;;;;;;;9.10;6.10;;;;;;;4.14;81.37;100075.84;5095536;28;20932;-62
2020/12/08 01:25:58;;;;;;;10.20;6.30;;;;;;;4.14;81.24;100076.75;5096292;28;20951;-62
2020/12/08 01:28:25;;;;;;;8.60;6.13;;;;;;;4.04;81.33;100075.34;5094514;28;20482;-63
2020/12/08 01:30:51;;;;;;;8.77;6.03;;;;;;;3.98;81.43;100080.09;5096756;28;20461;-62
2020/12/08 01:33:19;;;;;;;9.00;6.10;;;;;;;3.90;81.66;100072.00;5095474;28;20488;-62
2020/12/08 01:35:45;;;;;;;9.60;6.10;;;;;;;3.94;81.73;100078.16;5095662;28;20561;-62
2020/12/08 01:38:12;;;;;;;9.93;6.70;;;;;;;3.91;81.71;100073.75;5095447;28;20504;-62
2020/12/08 01:40:39;;;;;;;9.77;5.93;;;;;;;4.07;81.05;100077.19;5096721;28;20450;-61
2020/12/08 01:43:06;;;;;;;10.37;6.43;;;;;;;4.10;81.16;100079.91;5095192;28;20470;-62
2020/12/08 01:45:32;;;;;;;8.93;6.30;;;;;;;4.16;80.78;100070.06;5096415;28;20477;-62
2020/12/08 01:47:59;;;;;;;10.83;6.90;;;;;;;4.08;80.71;100072.97;5095474;28;20835;-62
2020/12/08 01:50:27;;;;;;;7.47;5.50;;;;;;;4.13;80.42;100069.00;5096610;28;20450;-62
2020/12/08 01:52:54;;;;;;;8.07;5.53;;;;;;;4.21;80.58;100075.44;5095370;28;20505;-62
2020/12/08 01:55:20;;;;;;;9.13;5.83;;;;;;;4.27;79.83;100080.00;5095798;28;20572;-61
2020/12/08 01:57:47;;;;;;;9.40;6.10;;;;;;;4.43;79.40;100080.09;5095328;28;20489;-61
2020/12/08 02:00:13;;;;;;;9.00;5.53;;;;;;;4.45;78.74;100077.59;5094711;28;20803;-63
2020/12/08 02:02:40;;;;;;;8.90;6.40;;;;;;;4.29;78.94;100073.28;5095947;28;20568;-61
2020/12/08 02:05:06;;;;;;;8.70;5.90;;;;;;;4.28;79.49;100084.31;5095396;28;20537;-62
2020/12/08 02:07:33;;;;;;;8.80;5.83;;;;;;;4.34;78.97;100074.44;5091574;28;20462;-62
2020/12/08 02:10:00;;;;;;;12.80;5.50;;;;;;;4.38;79.00;100073.81;5094760;28;20497;-62
2020/12/08 02:12:27;;;;;;;9.23;6.60;;;;;;;4.30;79.32;100075.06;5095924;28;20499;-61
2020/12/08 02:14:53;;;;;;;9.20;6.03;;;;;;;4.30;79.77;100075.06;5094358;28;20482;-62
2020/12/08 02:17:20;;;;;;;8.80;5.97;;;;;;;4.22;79.28;100076.31;5096202;28;20465;-62
2020/12/08 02:19:47;;;;;;;11.40;6.70;;;;;;;4.22;79.55;100079.75;5094874;28;20812;-62
2020/12/08 02:22:14;;;;;;;9.83;6.90;;;;;;;4.08;80.40;100073.84;5095900;28;20465;-62
2020/12/08 02:24:41;;;;;;;9.43;6.53;;;;;;;4.11;80.11;100076.56;5094339;28;20478;-62
2020/12/08 02:27:08;;;;;;;12.07;6.67;;;;;;;4.08;80.68;100076.41;5095562;28;20508;-61
2020/12/08 02:29:34;;;;;;;8.10;6.23;;;;;;;4.33;79.26;100083.75;5094498;28;20932;-61
2020/12/08 02:32:01;;;;;;;9.97;6.70;;;;;;;4.28;79.48;100080.09;5095971;28;20458;-62
2020/12/08 02:34:27;;;;;;;10.27;6.80;;;;;;;4.14;79.79;100086.06;5094169;28;20561;-62
2020/12/08 02:36:58;;;;;;;9.63;6.20;;;;;;;4.06;80.09;100083.09;5095447;28;20774;-62
2020/12/08 02:39:26;;;;;;;10.10;7.00;;;;;;;4.07;80.47;100092.53;5094689;28;20474;-62
2020/12/08 02:41:53;;;;;;;15.80;7.10;;;;;;;4.05;80.71;100094.09;5095749;28;20462;-62
2020/12/08 02:44:20;;;;;;;10.37;6.43;;;;;;;4.13;80.50;100087.75;5094049;28;20481;-61
2020/12/08 02:46:51;;;;;;;9.13;5.63;;;;;;;4.20;80.39;100083.88;5095835;28;20450;-61
2020/12/08 02:49:18;;;;;;;9.17;6.47;;;;;;;4.09;80.01;100092.63;5098623;28;20487;-61
2020/12/08 02:51:45;;;;;;;9.47;6.27;;;;;;;4.10;80.20;100090.13;5099299;28;20935;-63
2020/12/08 02:54:11;;;;;;;9.87;6.30;;;;;;;4.14;79.74;100091.19;5098071;28;20473;-62
2020/12/08 02:56:39;;;;;;;9.53;6.47;;;;;;;4.15;80.08;100087.88;5099737;28;20468;-61
2020/12/08 02:59:05;;;;;;;9.17;5.97;;;;;;;4.07;80.71;100089.06;5098698;28;20564;-61
2020/12/08 03:01:32;;;;;;;8.70;5.87;;;;;;;4.19;80.16;100084.66;5099678;28;20512;-63
2020/12/08 03:03:58;;;;;;;11.70;6.37;;;;;;;4.13;80.15;100084.31;5097738;28;20478;-61
2020/12/08 03:06:25;;;;;;;8.20;6.00;;;;;;;4.16;79.52;100084.50;5099327;28;20458;-63
2020/12/08 03:08:51;;;;;;;11.77;5.87;;;;;;;4.08;79.36;100084.06;5097571;28;20920;-62
2020/12/08 03:11:18;;;;;;;8.67;6.33;;;;;;;4.11;80.00;100078.25;5099280;28;20489;-61
2020/12/08 03:13:45;;;;;;;9.30;6.67;;;;;;;4.10;80.14;100085.03;5098022;28;20470;-62
2020/12/08 03:16:17;;;;;;;12.17;6.80;;;;;;;4.10;79.87;100082.47;5098924;28;20453;-61
2020/12/08 03:18:43;;;;;;;9.20;6.30;;;;;;;4.13;79.57;100092.88;5098123;28;20485;-61
2020/12/08 03:21:10;;;;;;;10.03;5.97;;;;;;;4.11;80.40;100086.78;5099114;28;20809;-62
2020/12/08 03:23:37;;;;;;;9.10;6.00;;;;;;;4.06;80.25;100093.31;5098021;28;20482;-61
2020/12/08 03:26:04;;;;;;;10.57;6.50;;;;;;;4.03;80.55;100088.03;5098745;28;20773;-61
2020/12/08 03:28:31;;;;;;;8.97;6.70;;;;;;;4.07;80.07;100084.88;5098024;28;20478;-60
2020/12/08 03:30:59;;;;;;;10.10;6.40;;;;;;;4.16;79.68;100085.38;5098865;28;20461;-61
2020/12/08 03:33:26;;;;;;;10.10;6.70;;;;;;;4.12;80.32;100078.34;5097546;28;20482;-62
2020/12/08 03:35:53;;;;;;;10.07;6.57;;;;;;;4.13;79.81;100091.97;5098540;28;20477;-60
2020/12/08 03:38:19;;;;;;;8.60;5.90;;;;;;;4.09;80.04;100085.81;5087007;28;20513;-60
2020/12/08 03:40:46;;;;;;;10.60;7.13;;;;;;;4.09;80.13;100087.50;5098120;28;20529;-61
2020/12/08 03:43:12;;;;;;;12.33;7.33;;;;;;;4.14;80.05;100088.63;5097232;28;20480;-62
2020/12/08 03:45:39;;;;;;;9.00;6.37;;;;;;;4.15;80.09;100086.16;5098631;28;20506;-61
2020/12/08 03:48:06;;;;;;;14.57;7.20;;;;;;;4.06;79.80;100093.31;5097504;28;20541;-62
2020/12/08 03:50:33;;;;;;;8.73;6.60;;;;;;;4.17;79.26;100099.03;5098818;28;20556;-62
2020/12/08 03:52:59;;;;;;;11.03;7.17;;;;;;;4.06;80.18;100093.31;5086948;28;20446;-61
2020/12/08 03:55:26;;;;;;;12.00;7.03;;;;;;;4.10;80.01;100090.13;5097441;28;20480;-61
2020/12/08 03:57:52;;;;;;;9.67;6.43;;;;;;;4.09;80.02;100098.59;5097090;28;20827;-62
2020/12/08 04:00:19;;;;;;;10.70;7.10;;;;;;;4.04;79.94;100098.31;5098219;28;20960;-61
2020/12/08 04:02:46;;;;;;;11.27;7.30;;;;;;;3.99;80.27;100102.28;5097488;28;20893;-62
2020/12/08 04:05:13;;;;;;;10.07;7.00;;;;;;;3.98;80.38;100102.19;5097887;28;20555;-60
2020/12/08 04:07:39;;;;;;;9.57;6.57;;;;;;;4.01;80.40;100104.94;5098150;28;20550;-60
2020/12/08 04:10:06;;;;;;;9.57;6.30;;;;;;;4.07;79.90;100105.28;5097610;28;20470;-61
2020/12/08 04:12:32;;;;;;;9.70;6.63;;;;;;;3.82;80.58;100108.97;5098383;28;20545;-61
2020/12/08 04:14:59;;;;;;;13.90;7.63;;;;;;;3.88;80.59;100101.66;5096453;28;20489;-60
2020/12/08 04:17:25;;;;;;;11.07;7.30;;;;;;;3.87;80.71;100107.56;5097914;28;20464;-61
2020/12/08 04:19:52;;;;;;;13.30;7.67;;;;;;;3.92;80.53;100113.84;5096905;28;20478;-62
2020/12/08 04:22:19;;;;;;;10.73;7.33;;;;;;;3.85;80.58;100114.22;5098094;28;20429;-61
2020/12/08 04:24:46;;;;;;;10.73;7.27;;;;;;;3.81;80.68;100114.88;5096427;28;20509;-62
2020/12/08 04:27:13;;;;;;;14.90;7.60;;;;;;;3.81;80.85;100111.41;5097834;28;20893;-61
2020/12/08 04:29:39;;;;;;;14.00;8.00;;;;;;;3.89;80.82;100112.75;5096393;28;20444;-62
2020/12/08 04:32:06;;;;;;;10.20;7.07;;;;;;;3.86;80.90;100117.69;5097684;28;20780;-62
2020/12/08 04:34:33;;;;;;;13.60;7.70;;;;;;;3.87;80.85;100116.88;5096174;28;20562;-60
2020/12/08 04:37:00;;;;;;;12.13;7.30;;;;;;;3.85;80.81;100116.78;5097920;28;20454;-61
2020/12/08 04:39:28;;;;;;;10.93;7.40;;;;;;;3.88;81.03;100106.78;5096412;28;20539;-62
2020/12/08 04:41:55;;;;;;;11.83;7.53;;;;;;;3.79;80.96;100118.97;5097585;28;20916;-61
2020/12/08 04:44:22;;;;;;;14.33;8.30;;;;;;;3.76;81.25;100113.72;5098094;28;20491;-60
2020/12/08 04:46:54;;;;;;;13.13;7.97;;;;;;;3.89;81.05;100117.84;5100002;28;20454;-61
2020/12/08 04:49:22;;;;;;;11.63;7.47;;;;;;;3.94;80.84;100123.25;5096301;28;20481;-61
2020/12/08 04:51:48;;;;;;;10.67;7.90;;;;;;;3.92;80.73;100118.94;5097593;28;20544;-62
2020/12/08 04:54:15;;;;;;;11.97;7.77;;;;;;;3.87;80.99;100127.09;5095445;28;20475;-62
2020/12/08 04:56:44;;;;;;;13.23;8.43;;;;;;;3.82;80.85;100120.84;5097383;28;20450;-62
2020/12/08 04:59:19;;;;;;;13.27;7.77;;;;;;;3.85;81.22;100119.34;5096022;28;20539;-61
2020/12/08 05:01:46;;;;;;;14.90;8.60;;;;;;;3.89;80.35;100125.50;5097188;28;20457;-61
2020/12/08 05:04:12;;;;;;;12.93;7.63;;;;;;;4.01;80.34;100125.34;5093836;28;21014;-61
2020/12/08 05:06:39;;;;;;;11.80;7.70;;;;;;;3.88;80.70;100124.63;5097116;28;20545;-62
2020/12/08 05:09:07;;;;;;;12.73;8.37;;;;;;;3.85;80.64;100124.44;5095747;28;20506;-62
2020/12/08 05:11:34;;;;;;;12.17;7.90;;;;;;;3.99;80.50;100129.50;5096094;28;20823;-62
2020/12/08 05:14:03;;;;;;;10.53;7.33;;;;;;;4.05;80.09;100128.16;5095406;28;20513;-61
2020/12/08 05:16:29;;;;;;;14.70;8.67;;;;;;;3.87;80.67;100135.66;5096942;28;20899;-61
2020/12/08 05:19:07;;;;;;;13.73;8.30;;;;;;;3.85;80.83;100137.22;5095894;28;20546;-62
2020/12/08 05:21:33;;;;;;;14.13;8.17;;;;;;;3.80;81.14;100140.28;5096826;28;20741;-62
2020/12/08 05:24:00;;;;;;;14.87;8.37;;;;;;;3.85;80.92;100132.09;5094836;28;20496;-61
2020/12/08 05:26:28;;;;;;;11.23;7.30;;;;;;;3.87;80.87;100133.09;5096930;28;20481;-62
2020/12/08 05:29:02;;;;;;;13.20;8.50;;;;;;;3.86;80.69;100130.44;5089040;28;20484;-61
2020/12/08 05:31:28;;;;;;;14.00;8.13;;;;;;;3.77;81.06;100130.78;5096669;28;20460;-61
2020/12/08 05:33:59;;;;;;;10.43;6.90;;;;;;;3.85;80.50;100128.69;5095327;28;20508;-61
2020/12/08 05:36:28;;;;;;;14.70;9.10;;;;;;;3.79;80.65;100139.41;5096575;28;20751;-62
2020/12/08 05:39:00;;;;;;;14.20;8.47;;;;;;;3.99;80.30;100129.50;5095620;28;20477;-61
2020/12/08 05:41:30;;;;;;;14.43;8.93;;;;;;;3.95;80.00;100137.75;5096473;28;20454;-61
2020/12/08 05:44:05;;;;;;;15.40;8.70;;;;;;;3.84;80.64;100135.44;5090476;28;20485;-60
2020/12/08 05:46:42;;;;;;;16.93;9.80;;;;;;;3.91;80.64;100124.81;5096509;28;20454;-61
2020/12/08 05:49:13;;;;;;;14.47;8.67;;;;;;;3.82;80.73;100124.28;5095077;28;20481;-62
2020/12/08 05:51:40;;;;;;;15.93;8.90;;;;;;;3.81;80.70;100125.06;5096424;28;20544;-62
2020/12/08 05:54:11;;;;;;;66.30;30.57;;;;;;;3.87;83.32;100122.88;5094744;28;20474;-63
2020/12/08 05:56:37;;;;;;;37.63;19.17;;;;;;;3.82;82.85;100119.19;5096196;28;20908;-61
2020/12/08 05:59:05;;;;;;;65.00;31.83;;;;;;;3.87;83.93;100122.88;5095107;28;20753;-61
2020/12/08 06:01:31;;;;;;;48.23;25.40;;;;;;;3.84;84.01;100117.59;5095994;28;20955;-62
2020/12/08 06:04:03;;;;;;;43.80;20.80;;;;;;;3.83;83.45;100125.16;5094811;28;20569;-61
2020/12/08 06:06:29;;;;;;;28.00;15.80;;;;;;;3.77;82.54;100120.56;5096359;28;20545;-61
2020/12/08 06:08:56;;;;;;;24.00;12.57;;;;;;;3.76;82.56;100123.91;5095071;28;20553;-60
2020/12/08 06:11:29;;;;;;;20.90;11.77;;;;;;;3.74;82.38;100131.47;5096048;28;20463;-61
2020/12/08 06:13:55;;;;;;;21.70;12.23;;;;;;;3.78;82.53;100132.53;5094554;28;20473;-61
2020/12/08 06:16:23;;;;;;;23.93;13.10;;;;;;;3.88;82.48;100129.75;5095909;28;20913;-61
2020/12/08 06:18:51;;;;;;;24.30;13.90;;;;;;;3.80;81.85;100136.09;5094959;28;20619;-62
2020/12/08 06:21:22;;;;;;;31.47;17.20;;;;;;;3.80;82.35;100141.19;5097388;28;20425;-61
2020/12/08 06:23:49;;;;;;;37.73;16.57;;;;;;;3.94;83.05;100138.56;5101571;28;20458;-62
2020/12/08 06:26:23;;;;;;;23.97;13.17;;;;;;;3.87;81.33;100142.41;5102352;28;20888;-62
2020/12/08 06:28:49;;;;;;;30.53;17.50;;;;;;;3.71;81.85;100140.63;5101567;28;20924;-62
2020/12/08 06:31:16;;;;;;;43.03;20.60;;;;;;;3.77;82.19;100146.09;5103022;28;20442;-61
2020/12/08 06:33:48;;;;;;;18.70;10.77;;;;;;;3.78;81.25;100151.28;5101006;28;20501;-60
2020/12/08 06:36:15;;;;;;;15.20;10.00;;;;;;;3.70;81.21;100147.38;5102281;28;20905;-62
2020/12/08 06:38:41;;;;;;;22.37;13.43;;;;;;;3.80;81.25;100151.38;5101651;28;20465;-61
2020/12/08 06:41:08;;;;;;;20.80;12.00;;;;;;;3.67;81.34;100149.75;5102316;28;20446;-61
2020/12/08 06:43:41;;;;;;;18.60;10.17;;;;;;;3.69;81.42;100154.97;5100987;28;20497;-62
2020/12/08 06:46:10;;;;;;;18.13;11.10;;;;;;;3.74;81.29;100154.44;5102286;28;20533;-61
2020/12/08 06:48:38;;;;;;;15.57;9.67;;;;;;;3.73;81.43;100169.66;5101543;28;20481;-62
2020/12/08 06:51:16;;;;;;;21.00;10.17;;;;;;;3.71;81.01;100161.94;5102386;28;20454;-61
2020/12/08 06:53:43;;;;;;;16.13;10.27;;;;;;;3.72;81.47;100165.34;5100418;28;20499;-61
2020/12/08 06:56:09;;;;;;;16.73;10.43;;;;;;;3.77;81.35;100166.50;5102061;28;20519;-61
2020/12/08 06:58:45;;;;;;;16.00;9.90;;;;;;;3.72;81.52;100165.34;5101243;28;20474;-61
2020/12/08 07:01:13;;;;;;;15.07;9.23;;;;;;;3.63;81.90;100164.00;5102064;28;20533;-61
2020/12/08 07:03:39;;;;;;;21.33;9.70;;;;;;;3.63;81.53;100169.13;5100900;28;20492;-61
2020/12/08 07:06:06;;;;;;;16.50;9.87;;;;;;;3.64;81.57;100175.13;5102075;28;20458;-62
2020/12/08 07:08:37;;;;;;;16.63;9.60;;;;;;;3.81;80.72;100178.66;5101420;28;20514;-61
2020/12/08 07:11:06;;;;;;;21.67;10.77;;;;;;;3.82;80.79;100172.78;5082136;28;20500;-62
2020/12/08 07:13:32;;;;;;;15.73;9.33;;;;;;;3.70;80.86;100180.56;5080769;28;20478;-60
2020/12/08 07:15:59;;;;;;;17.00;9.83;;;;;;;3.65;81.47;100171.78;5081635;28;20874;-61
2020/12/08 07:18:29;;;;;;;16.40;10.07;;;;;;;3.64;81.25;100170.88;5080761;28;20482;-61
2020/12/08 07:20:57;;;;;;;14.90;9.70;;;;;;;3.55;81.59;100175.44;5082188;28;20834;-62
2020/12/08 07:23:27;;;;;;;19.80;10.40;;;;;;;3.60;81.24;100186.78;5080416;28;20986;-60
2020/12/08 07:25:56;;;;;;;17.53;10.10;;;;;;;3.61;81.49;100183.47;5081418;28;20486;-61
2020/12/08 07:28:24;;;;;;;19.87;10.03;;;;;;;3.66;80.94;100191.38;5080977;28;20517;-63
2020/12/08 07:30:50;;;;;;;18.80;9.27;;;;;;;3.79;80.59;100195.53;5081863;28;20465;-62
2020/12/08 07:33:17;;;;;;;17.20;10.17;;;;;;;3.75;80.61;100197.03;5078381;28;20484;-61
2020/12/08 07:35:44;;;;;;;20.10;10.73;;;;;;;3.70;80.80;100208.63;5078198;28;20565;-60
2020/12/08 07:38:11;;;;;;;17.57;10.23;;;;;;;3.62;80.93;100205.63;5077313;28;20470;-62
2020/12/08 07:40:39;;;;;;;16.57;10.90;;;;;;;3.70;80.94;100205.22;5078643;28;20565;-61
2020/12/08 07:43:07;;;;;;;16.20;9.93;;;;;;;3.68;80.60;100201.69;5077116;28;20546;-62
2020/12/08 07:45:41;;;;;;;18.77;10.47;;;;;;;3.60;80.75;100194.44;5077769;28;20510;-62
2020/12/08 07:48:10;;;;;;;17.37;9.83;;;;;;;3.58;81.14;100201.13;5077467;28;20516;-60
2020/12/08 07:50:37;;;;;;;18.73;10.77;;;;;;;3.54;81.06;100198.28;5078305;28;20459;-62
2020/12/08 07:53:05;;;;;;;19.43;10.43;;;;;;;3.58;80.87;100196.00;5077285;28;20825;-61
2020/12/08 07:55:38;;;;;;;18.83;10.70;;;;;;;3.54;81.05;100194.06;5078091;28;20474;-61
2020/12/08 07:58:05;;;;;;;16.20;10.00;;;;;;;3.61;80.90;100197.88;5077006;28;20474;-61
2020/12/08 08:00:32;;;;;;;17.97;10.77;;;;;;;3.58;81.26;100193.47;5078418;28;20751;-60
2020/12/08 08:03:00;;;;;;;19.10;10.90;;;;;;;3.54;81.33;100191.50;5077275;28;20451;-61
2020/12/08 08:05:27;;;;;;;19.53;11.17;;;;;;;3.58;81.21;100192.59;5077447;28;20482;-61
2020/12/08 08:07:54;;;;;;;18.53;10.80;;;;;;;3.58;80.99;100198.56;5077043;28;20553;-61
2020/12/08 08:10:21;;;;;;;20.47;11.30;;;;;;;3.60;80.94;100196.13;5092754;28;20539;-61
2020/12/08 08:12:47;;;;;;;21.43;11.53;;;;;;;3.63;80.58;100193.72;5097085;28;20485;-61
2020/12/08 08:15:14;;;;;;;19.43;11.63;;;;;;;3.52;80.80;100198.19;5097513;28;20517;-61
2020/12/08 08:17:41;;;;;;;18.27;10.40;;;;;;;3.58;80.78;100193.47;5097058;28;20454;-64
2020/12/08 08:20:11;;;;;;;21.13;11.40;;;;;;;3.61;80.28;100192.78;5097934;28;20490;-61
2020/12/08 08:22:38;;;;;;;18.10;10.20;;;;;;;3.60;80.66;100194.44;5098127;28;20504;-62
2020/12/08 08:25:05;;;;;;;17.67;10.87;;;;;;;3.65;80.65;100198.16;5096368;28;20489;-61
2020/12/08 08:27:32;;;;;;;20.77;11.00;;;;;;;3.70;80.49;100202.66;5097739;28;20549;-61
2020/12/08 08:29:59;;;;;;;17.50;9.90;;;;;;;3.72;80.29;100183.22;5096349;28;20477;-61
2020/12/08 08:32:26;;;;;;;18.50;11.40;;;;;;;3.74;80.25;100189.31;5097591;28;20952;-60
2020/12/08 08:34:53;;;;;;;23.47;10.83;;;;;;;3.74;80.43;100187.63;5096210;28;20474;-61
2020/12/08 08:37:20;;;;;;;21.20;11.40;;;;;;;3.76;80.16;100180.06;5097767;28;20489;-61
2020/12/08 08:39:47;;;;;;;16.20;10.23;;;;;;;3.79;80.25;100190.44;5096168;28;20924;-61
2020/12/08 08:42:13;;;;;;;18.03;10.67;;;;;;;3.76;80.43;100192.81;5097677;28;20539;-61
2020/12/08 08:44:40;;;;;;;18.10;11.50;;;;;;;3.81;80.24;100193.97;5095198;28;20486;-61
2020/12/08 08:47:07;;;;;;;21.27;12.40;;;;;;;3.77;80.10;100192.03;5097293;28;20519;-61
2020/12/08 08:49:33;;;;;;;19.73;11.40;;;;;;;3.75;80.07;100193.63;5090385;28;20944;-61
2020/12/08 08:52:01;;;;;;;21.63;11.93;;;;;;;3.76;79.96;100192.81;5097490;28;20460;-62
2020/12/08 08:54:28;;;;;;;19.23;11.20;;;;;;;3.83;79.84;100188.94;5095723;28;20474;-62
2020/12/08 08:56:55;;;;;;;18.03;11.20;;;;;;;3.90;79.32;100193.66;5097086;28;20541;-61
2020/12/08 08:59:22;;;;;;;17.60;10.83;;;;;;;3.84;79.17;100196.69;5096092;28;20544;-61
2020/12/08 09:01:48;;;;;;;19.80;11.60;;;;;;;3.78;79.14;100204.00;5097104;28;20457;-61
2020/12/08 09:04:15;;;;;;;19.20;11.67;;;;;;;3.83;79.66;100202.59;5095215;28;20481;-61
2020/12/08 09:06:41;;;;;;;21.00;11.93;;;;;;;3.83;79.25;100196.59;5097180;28;20460;-61
2020/12/08 09:09:09;;;;;;;18.63;10.90;;;;;;;3.88;79.27;100202.88;5095846;28;20835;-61
2020/12/08 09:11:36;;;;;;;24.90;11.87;;;;;;;3.87;79.32;100212.22;5097097;28;20859;-61
2020/12/08 09:14:02;;;;;;;17.57;10.90;;;;;;;3.87;79.32;100208.78;5095306;28;20531;-61
2020/12/08 09:16:29;;;;;;;19.80;11.70;;;;;;;3.88;79.51;100200.31;5096888;28;20468;-61
2020/12/08 09:18:55;;;;;;;19.67;11.17;;;;;;;3.90;78.50;100203.88;5095808;28;20474;-61
2020/12/08 09:21:22;;;;;;;19.13;11.20;;;;;;;3.92;78.84;100202.28;5096762;28;20803;-61
2020/12/08 09:23:49;;;;;;;20.10;12.07;;;;;;;4.02;78.62;100206.25;5094971;28;20481;-61
2020/12/08 09:26:16;;;;;;;21.40;12.60;;;;;;;3.96;78.92;100201.69;5096565;28;20462;-62
2020/12/08 09:28:43;;;;;;;23.00;13.00;;;;;;;3.97;79.10;100197.44;5095780;28;20469;-62
2020/12/08 09:31:10;;;;;;;18.40;11.73;;;;;;;4.02;79.46;100193.50;5096608;28;20458;-61
2020/12/08 09:33:38;;;;;;;17.73;11.17;;;;;;;3.99;79.11;100200.97;5095332;28;20547;-60
2020/12/08 09:36:05;;;;;;;22.43;12.03;;;;;;;3.98;79.51;100202.63;5096133;28;20529;-62
2020/12/08 09:38:32;;;;;;;23.07;12.07;;;;;;;3.95;79.40;100206.69;5095171;28;20773;-60
2020/12/08 09:40:58;;;;;;;20.93;12.27;;;;;;;4.01;78.50;100210.47;5096711;28;20500;-62
2020/12/08 09:43:26;;;;;;;17.87;10.77;;;;;;;3.94;78.54;100213.44;5094921;28;20477;-62
2020/12/08 09:45:54;;;;;;;21.13;11.57;;;;;;;3.92;79.18;100213.38;5095928;28;20461;-62
2020/12/08 09:48:21;;;;;;;18.80;11.63;;;;;;;4.17;81.38;100214.81;5094777;28;20486;-62
2020/12/08 09:50:50;;;;;;;19.57;11.10;;;;;;;4.18;79.10;100219.16;5096260;28;20458;-61
2020/12/08 09:53:17;;;;;;;19.50;12.20;;;;;;;4.38;79.09;100216.88;5095058;28;20477;-60
2020/12/08 09:55:47;;;;;;;18.27;11.30;;;;;;;4.56;80.43;100213.63;5095641;28;20478;-62
2020/12/08 09:58:14;;;;;;;21.77;11.80;;;;;;;4.58;79.94;100207.78;5094286;28;20545;-60
2020/12/08 10:00:42;;;;;;;20.97;12.33;;;;;;;4.50;80.60;100206.47;5096285;28;20540;-61
2020/12/08 10:03:08;;;;;;;20.30;11.77;;;;;;;4.21;80.64;100209.91;5094526;28;20791;-63
2020/12/08 10:05:35;;;;;;;17.10;11.37;;;;;;;4.29;80.63;100214.66;5095659;28;20533;-60
2020/12/08 10:08:01;;;;;;;24.23;12.83;;;;;;;4.43;80.91;100209.47;5094698;28;20473;-61
2020/12/08 10:10:28;;;;;;;21.20;11.87;;;;;;;4.44;80.94;100209.56;5096202;28;20549;-61
2020/12/08 10:12:55;;;;;;;23.70;13.30;;;;;;;4.19;81.52;100207.25;5094519;28;20487;-61
2020/12/08 10:15:21;;;;;;;21.70;13.07;;;;;;;4.05;82.18;100198.75;5095535;28;20489;-61
2020/12/08 10:17:49;;;;;;;21.40;12.90;;;;;;;4.10;82.21;100197.38;5094268;28;20453;-61
2020/12/08 10:20:16;;;;;;;21.60;12.60;;;;;;;4.12;82.08;100200.91;5096111;28;20477;-62
2020/12/08 10:22:42;;;;;;;22.90;13.77;;;;;;;4.14;82.87;100206.97;5094003;28;20486;-63
2020/12/08 10:25:09;;;;;;;41.10;20.03;;;;;;;4.01;83.72;100201.94;5095238;28;20490;-61
2020/12/08 10:27:36;;;;;;;58.37;27.60;;;;;;;4.04;83.58;100207.22;5095913;28;20544;-62
2020/12/08 10:30:04;;;;;;;46.87;24.80;;;;;;;3.99;83.86;100211.19;5094365;28;20486;-62
2020/12/08 10:32:30;;;;;;;30.23;16.30;;;;;;;4.02;83.66;100216.47;5095900;28;20783;-62
2020/12/08 10:34:58;;;;;;;28.03;15.93;;;;;;;3.97;83.58;100220.41;5093794;28;20497;-64
2020/12/08 10:37:24;;;;;;;43.53;22.47;;;;;;;4.02;83.71;100209.69;5096018;28;20461;-62
2020/12/08 10:39:51;;;;;;;34.50;19.90;;;;;;;4.04;83.73;100212.31;5094139;28;21017;-60
2020/12/08 10:42:18;;;;;;;38.20;19.93;;;;;;;4.05;83.72;100219.19;5095362;28;20915;-62
2020/12/08 10:44:44;;;;;;;26.07;14.60;;;;;;;4.10;83.53;100217.78;5093650;28;20573;-61
2020/12/08 10:47:11;;;;;;;27.50;14.87;;;;;;;4.10;83.47;100225.47;5095620;28;20734;-60
2020/12/08 10:49:37;;;;;;;26.53;15.00;;;;;;;4.17;82.92;100214.81;5093988;28;20557;-60
2020/12/08 10:52:05;;;;;;;25.63;14.70;;;;;;;4.14;83.09;100208.63;5095613;28;20901;-62
2020/12/08 10:54:31;;;;;;;25.30;15.00;;;;;;;4.10;83.34;100217.78;5093896;28;20485;-59
2020/12/08 10:56:58;;;;;;;26.40;16.27;;;;;;;4.09;83.52;100223.69;5095318;28;20515;-61
2020/12/08 10:59:25;;;;;;;29.40;15.40;;;;;;;4.16;83.11;100222.41;5094199;28;20581;-58
2020/12/08 11:02:00;;;;;;;25.13;15.27;;;;;;;4.17;82.75;100222.47;5095856;28;20495;-61
2020/12/08 11:04:27;;;;;;;27.30;15.70;;;;;;;4.14;82.95;100219.75;5093053;28;20569;-58
2020/12/08 11:06:55;;;;;;;29.30;16.63;;;;;;;4.07;83.72;100212.53;5095579;28;20494;-58
2020/12/08 11:09:23;;;;;;;25.37;15.57;;;;;;;4.01;82.65;100217.25;5096622;28;20501;-61
2020/12/08 11:11:49;;;;;;;25.43;14.80;;;;;;;4.11;82.55;100217.00;5099291;28;20778;-61
2020/12/08 11:14:16;;;;;;;26.53;14.93;;;;;;;4.22;82.74;100216.75;5097135;28;20473;-61
2020/12/08 11:16:43;;;;;;;25.70;15.33;;;;;;;4.19;82.52;100223.47;5099367;28;20461;-59
2020/12/08 11:19:10;;;;;;;23.27;13.67;;;;;;;4.18;81.60;100215.69;5097677;28;20481;-60
2020/12/08 11:21:39;;;;;;;30.60;17.37;;;;;;;4.14;81.74;100218.84;5099195;28;20889;-62
2020/12/08 11:24:13;;;;;;;24.43;15.27;;;;;;;4.25;81.48;100211.84;5097088;28;20788;-62